sensor_id;sensor_type;location;lat;lon;timestamp;pressure;altitude;pressure_sealevel;temperature;humidity
55424;BME280;41294;42.666;23.350;2023-10-19T00:00:45;95014.44;;;8.04;100.00
55424;BME280;41294;42.666;23.350;2023-10-19T00:03:14;95014.38;;;8.07;100.00
55424;BME280;41294;42.666;23.350;2023-10-19T00:05:40;95004.50;;;8.11;100.00
55424;BME280;41294;42.666;23.350;2023-10-19T00:08:10;95000.19;;;8.05;100.00
55424;BME280;41294;42.666;23.350;2023-10-19T00:10:39;94996.84;;;8.04;100.00
55424;BME280;41294;42.666;23.350;2023-10-19T00:13:08;94998.03;;;8.16;100.00
55424;BME280;41294;42.666;23.350;2023-10-19T00:15:38;94992.69;;;8.19;100.00
55424;BME280;41294;42.666;23.350;2023-10-19T00:18:12;94991.66;;;8.17;100.00
55424;BME280;41294;42.666;23.350;2023-10-19T00:20:41;94989.13;;;8.25;100.00
55424;BME280;41294;42.666;23.350;2023-10-19T00:23:06;94987.88;;;8.18;100.00
55424;BME280;41294;42.666;23.350;2023-10-19T00:25:32;94984.28;;;8.12;100.00
55424;BME280;41294;42.666;23.350;2023-10-19T00:28:06;94983.88;;;8.25;100.00
55424;BME280;41294;42.666;23.350;2023-10-19T00:30:32;94979.88;;;8.33;100.00
55424;BME280;41294;42.666;23.350;2023-10-19T00:33:01;94975.78;;;8.32;100.00
55424;BME280;41294;42.666;23.350;2023-10-19T00:35:35;94970.44;;;8.23;100.00
55424;BME280;41294;42.666;23.350;2023-10-19T00:38:01;94971.28;;;8.20;100.00
55424;BME280;41294;42.666;23.350;2023-10-19T00:40:52;94977.38;;;8.18;99.95
55424;BME280;41294;42.666;23.350;2023-10-19T00:43:35;94976.22;;;8.18;99.63
55424;BME280;41294;42.666;23.350;2023-10-19T00:46:14;94969.53;;;8.18;100.00
55424;BME280;41294;42.666;23.350;2023-10-19T00:48:47;94968.06;;;8.17;99.88
55424;BME280;41294;42.666;23.350;2023-10-19T00:51:16;94968.63;;;8.08;100.00
55424;BME280;41294;42.666;23.350;2023-10-19T00:53:59;94965.31;;;7.95;100.00
55424;BME280;41294;42.666;23.350;2023-10-19T00:56:29;94964.66;;;7.91;100.00
55424;BME280;41294;42.666;23.350;2023-10-19T00:58:58;94968.22;;;7.85;100.00
55424;BME280;41294;42.666;23.350;2023-10-19T01:01:40;94968.13;;;7.88;100.00
55424;BME280;41294;42.666;23.350;2023-10-19T01:04:11;94961.53;;;7.96;100.00
55424;BME280;41294;42.666;23.350;2023-10-19T01:06:42;94965.72;;;7.94;100.00
55424;BME280;41294;42.666;23.350;2023-10-19T01:09:11;94967.38;;;8.00;100.00
55424;BME280;41294;42.666;23.350;2023-10-19T01:11:42;94977.56;;;7.98;100.00
55424;BME280;41294;42.666;23.350;2023-10-19T01:14:21;94969.72;;;7.98;100.00
55424;BME280;41294;42.666;23.350;2023-10-19T01:16:53;94972.41;;;7.82;100.00
55424;BME280;41294;42.666;23.350;2023-10-19T01:19:22;94974.19;;;7.73;100.00
55424;BME280;41294;42.666;23.350;2023-10-19T01:21:48;94982.50;;;7.84;100.00
55424;BME280;41294;42.666;23.350;2023-10-19T01:24:21;94981.84;;;7.92;100.00
55424;BME280;41294;42.666;23.350;2023-10-19T01:27:05;94981.75;;;7.96;100.00
55424;BME280;41294;42.666;23.350;2023-10-19T01:29:34;94973.16;;;7.95;99.96
55424;BME280;41294;42.666;23.350;2023-10-19T01:31:59;94969.91;;;7.91;100.00
55424;BME280;41294;42.666;23.350;2023-10-19T01:34:34;94966.03;;;7.96;100.00
55424;BME280;41294;42.666;23.350;2023-10-19T01:37:00;94976.41;;;7.99;99.97
55424;BME280;41294;42.666;23.350;2023-10-19T01:39:32;94976.00;;;8.01;100.00
55424;BME280;41294;42.666;23.350;2023-10-19T01:42:01;94973.38;;;8.01;100.00
55424;BME280;41294;42.666;23.350;2023-10-19T01:44:27;94986.81;;;8.03;100.00
55424;BME280;41294;42.666;23.350;2023-10-19T01:46:53;94974.19;;;7.98;100.00
55424;BME280;41294;42.666;23.350;2023-10-19T01:49:18;94976.81;;;7.98;100.00
55424;BME280;41294;42.666;23.350;2023-10-19T01:51:53;94973.06;;;8.11;100.00
55424;BME280;41294;42.666;23.350;2023-10-19T01:54:20;94977.38;;;8.18;100.00
55424;BME280;41294;42.666;23.350;2023-10-19T01:56:57;94977.16;;;8.24;99.84
55424;BME280;41294;42.666;23.350;2023-10-19T01:59:23;94976.22;;;8.18;99.81
55424;BME280;41294;42.666;23.350;2023-10-19T02:01:56;94975.81;;;8.20;100.00
55424;BME280;41294;42.666;23.350;2023-10-19T02:04:22;94973.81;;;8.24;99.89
55424;BME280;41294;42.666;23.350;2023-10-19T02:06:49;94962.28;;;8.21;100.00
55424;BME280;41294;42.666;23.350;2023-10-19T02:09:17;94969.31;;;8.24;100.00
55424;BME280;41294;42.666;23.350;2023-10-19T02:11:47;94967.81;;;8.11;100.00
55424;BME280;41294;42.666;23.350;2023-10-19T02:14:14;94971.69;;;8.07;100.00
55424;BME280;41294;42.666;23.350;2023-10-19T02:16:45;94972.34;;;8.11;100.00
55424;BME280;41294;42.666;23.350;2023-10-19T02:19:12;94972.00;;;8.09;100.00
55424;BME280;41294;42.666;23.350;2023-10-19T02:21:38;94974.53;;;8.12;100.00
55424;BME280;41294;42.666;23.350;2023-10-19T02:24:08;94982.72;;;8.14;100.00
55424;BME280;41294;42.666;23.350;2023-10-19T02:26:35;94981.66;;;8.12;100.00
55424;BME280;41294;42.666;23.350;2023-10-19T02:29:02;94976.72;;;8.01;100.00
55424;BME280;41294;42.666;23.350;2023-10-19T02:31:34;94972.53;;;8.04;100.00
55424;BME280;41294;42.666;23.350;2023-10-19T02:33:59;94974.31;;;7.94;100.00
55424;BME280;41294;42.666;23.350;2023-10-19T02:36:28;94980.31;;;8.07;100.00
55424;BME280;41294;42.666;23.350;2023-10-19T02:38:55;94972.13;;;8.18;100.00
55424;BME280;41294;42.666;23.350;2023-10-19T02:41:24;94971.91;;;8.24;100.00
55424;BME280;41294;42.666;23.350;2023-10-19T02:43:54;94975.38;;;8.21;100.00
55424;BME280;41294;42.666;23.350;2023-10-19T02:46:44;94974.22;;;8.22;100.00
55424;BME280;41294;42.666;23.350;2023-10-19T02:49:11;94973.50;;;8.22;100.00
55424;BME280;41294;42.666;23.350;2023-10-19T02:51:39;94979.06;;;8.24;100.00
55424;BME280;41294;42.666;23.350;2023-10-19T02:54:07;94969.63;;;8.26;100.00
55424;BME280;41294;42.666;23.350;2023-10-19T02:56:33;94969.19;;;8.16;100.00
55424;BME280;41294;42.666;23.350;2023-10-19T02:59:01;94978.63;;;8.25;100.00
55424;BME280;41294;42.666;23.350;2023-10-19T03:01:29;94977.38;;;8.18;100.00
55424;BME280;41294;42.666;23.350;2023-10-19T03:03:57;94971.38;;;8.17;100.00
55424;BME280;41294;42.666;23.350;2023-10-19T03:06:26;94967.59;;;8.06;100.00
55424;BME280;41294;42.666;23.350;2023-10-19T03:08:57;94963.94;;;7.91;100.00
55424;BME280;41294;42.666;23.350;2023-10-19T03:11:56;94958.16;;;7.96;100.00
55424;BME280;41294;42.666;23.350;2023-10-19T03:14:25;94967.38;;;8.00;100.00
55424;BME280;41294;42.666;23.350;2023-10-19T03:16:52;94957.75;;;8.10;100.00
55424;BME280;41294;42.666;23.350;2023-10-19T03:19:17;94966.03;;;7.96;100.00
55424;BME280;41294;42.666;23.350;2023-10-19T03:21:43;94970.00;;;7.88;100.00
55424;BME280;41294;42.666;23.350;2023-10-19T03:24:12;94969.06;;;7.94;100.00
55424;BME280;41294;42.666;23.350;2023-10-19T03:26:56;94969.78;;;7.95;100.00
55424;BME280;41294;42.666;23.350;2023-10-19T03:29:24;94962.03;;;8.04;100.00
55424;BME280;41294;42.666;23.350;2023-10-19T03:32:04;94971.06;;;8.03;100.00
55424;BME280;41294;42.666;23.350;2023-10-19T03:34:31;94971.91;;;8.00;100.00
55424;BME280;41294;42.666;23.350;2023-10-19T03:36:57;94961.41;;;8.00;100.00
55424;BME280;41294;42.666;23.350;2023-10-19T03:39:29;94953.44;;;8.03;100.00
55424;BME280;41294;42.666;23.350;2023-10-19T03:41:55;94961.41;;;8.00;100.00
55424;BME280;41294;42.666;23.350;2023-10-19T03:44:22;94959.72;;;8.06;100.00
55424;BME280;41294;42.666;23.350;2023-10-19T03:46:51;94953.56;;;7.87;100.00
55424;BME280;41294;42.666;23.350;2023-10-19T03:49:38;94952.09;;;7.86;100.00
55424;BME280;41294;42.666;23.350;2023-10-19T03:52:08;94951.44;;;7.95;100.00
55424;BME280;41294;42.666;23.350;2023-10-19T03:54:33;94945.88;;;7.68;100.00
55424;BME280;41294;42.666;23.350;2023-10-19T03:57:04;94944.59;;;7.60;100.00
55424;BME280;41294;42.666;23.350;2023-10-19T03:59:32;94944.09;;;7.65;100.00
55424;BME280;41294;42.666;23.350;2023-10-19T04:02:00;94939.09;;;7.70;100.00
55424;BME280;41294;42.666;23.350;2023-10-19T04:04:32;94942.53;;;7.80;100.00
55424;BME280;41294;42.666;23.350;2023-10-19T04:06:58;94942.00;;;7.60;100.00
55424;BME280;41294;42.666;23.350;2023-10-19T04:09:24;94945.34;;;7.60;100.00
55424;BME280;41294;42.666;23.350;2023-10-19T04:11:55;94944.81;;;7.53;100.00
55424;BME280;41294;42.666;23.350;2023-10-19T04:14:21;94940.44;;;7.62;100.00
55424;BME280;41294;42.666;23.350;2023-10-19T04:16:47;94956.91;;;7.75;100.00
55424;BME280;41294;42.666;23.350;2023-10-19T04:19:14;94950.16;;;7.62;100.00
55424;BME280;41294;42.666;23.350;2023-10-19T04:21:41;94952.78;;;7.62;100.00
55424;BME280;41294;42.666;23.350;2023-10-19T04:24:11;94949.84;;;7.60;100.00
55424;BME280;41294;42.666;23.350;2023-10-19T04:26:37;94945.97;;;7.52;100.00
55424;BME280;41294;42.666;23.350;2023-10-19T04:29:04;94943.88;;;7.47;100.00
55424;BME280;41294;42.666;23.350;2023-10-19T04:31:38;94941.16;;;7.50;100.00
55424;BME280;41294;42.666;23.350;2023-10-19T04:34:14;94938.97;;;7.49;100.00
55424;BME280;41294;42.666;23.350;2023-10-19T04:36:39;94935.81;;;7.54;100.00
55424;BME280;41294;42.666;23.350;2023-10-19T04:39:05;94937.47;;;7.48;100.00
55424;BME280;41294;42.666;23.350;2023-10-19T04:41:30;94935.38;;;7.43;100.00
55424;BME280;41294;42.666;23.350;2023-10-19T04:43:56;94938.84;;;7.40;100.00
55424;BME280;41294;42.666;23.350;2023-10-19T04:46:23;94934.19;;;7.32;100.00
55424;BME280;41294;42.666;23.350;2023-10-19T04:48:49;94932.13;;;7.39;100.00
55424;BME280;41294;42.666;23.350;2023-10-19T04:51:15;94923.63;;;7.35;100.00
55424;BME280;41294;42.666;23.350;2023-10-19T04:53:42;94930.03;;;7.46;100.00
55424;BME280;41294;42.666;23.350;2023-10-19T04:56:08;94917.16;;;7.52;100.00
55424;BME280;41294;42.666;23.350;2023-10-19T04:58:38;94932.63;;;7.34;100.00
55424;BME280;41294;42.666;23.350;2023-10-19T05:01:03;94923.94;;;7.37;100.00
55424;BME280;41294;42.666;23.350;2023-10-19T05:03:30;94927.97;;;7.66;100.00
55424;BME280;41294;42.666;23.350;2023-10-19T05:05:56;94930.91;;;8.06;99.38
55424;BME280;41294;42.666;23.350;2023-10-19T05:08:23;94931.75;;;7.90;99.09
55424;BME280;41294;42.666;23.350;2023-10-19T05:10:52;94931.84;;;7.87;100.00
55424;BME280;41294;42.666;23.350;2023-10-19T05:13:18;94936.47;;;8.08;98.59
55424;BME280;41294;42.666;23.350;2023-10-19T05:15:46;94931.84;;;8.36;97.48
55424;BME280;41294;42.666;23.350;2023-10-19T05:18:11;94936.63;;;8.50;95.58
55424;BME280;41294;42.666;23.350;2023-10-19T05:20:37;94932.84;;;8.51;94.98
55424;BME280;41294;42.666;23.350;2023-10-19T05:23:06;94930.75;;;9.14;93.30
55424;BME280;41294;42.666;23.350;2023-10-19T05:25:34;94934.19;;;9.54;90.99
55424;BME280;41294;42.666;23.350;2023-10-19T05:28:00;94930.59;;;10.30;87.50
55424;BME280;41294;42.666;23.350;2023-10-19T05:30:26;94927.91;;;10.87;84.64
55424;BME280;41294;42.666;23.350;2023-10-19T05:32:51;94932.41;;;11.58;79.96
55424;BME280;41294;42.666;23.350;2023-10-19T05:35:17;94938.03;;;11.83;79.08
55424;BME280;41294;42.666;23.350;2023-10-19T05:37:49;94934.75;;;12.06;77.46
55424;BME280;41294;42.666;23.350;2023-10-19T05:40:16;94941.91;;;12.38;75.75
55424;BME280;41294;42.666;23.350;2023-10-19T05:42:43;94948.59;;;11.83;78.76
55424;BME280;41294;42.666;23.350;2023-10-19T05:45:08;94948.34;;;12.69;76.01
55424;BME280;41294;42.666;23.350;2023-10-19T05:47:34;94943.44;;;13.00;74.81
55424;BME280;41294;42.666;23.350;2023-10-19T05:50:00;94950.47;;;13.70;72.17
55424;BME280;41294;42.666;23.350;2023-10-19T05:52:25;94949.41;;;13.10;73.56
55424;BME280;41294;42.666;23.350;2023-10-19T05:54:52;94950.22;;;13.53;72.77
55424;BME280;41294;42.666;23.350;2023-10-19T05:57:20;94947.72;;;12.98;74.89
55424;BME280;41294;42.666;23.350;2023-10-19T05:59:47;94953.28;;;12.53;78.03
55424;BME280;41294;42.666;23.350;2023-10-19T06:02:13;94951.91;;;12.34;78.97
55424;BME280;41294;42.666;23.350;2023-10-19T06:04:38;94948.13;;;12.26;80.32
55424;BME280;41294;42.666;23.350;2023-10-19T06:07:04;94952.84;;;12.22;80.23
55424;BME280;41294;42.666;23.350;2023-10-19T06:09:29;94954.88;;;11.86;81.03
55424;BME280;41294;42.666;23.350;2023-10-19T06:11:55;94955.53;;;11.63;82.85
55424;BME280;41294;42.666;23.350;2023-10-19T06:14:21;94958.00;;;11.75;83.41
55424;BME280;41294;42.666;23.350;2023-10-19T06:16:46;94953.00;;;11.77;82.85
55424;BME280;41294;42.666;23.350;2023-10-19T06:19:11;94946.59;;;11.51;83.61
55424;BME280;41294;42.666;23.350;2023-10-19T06:21:37;94943.09;;;11.37;84.85
55424;BME280;41294;42.666;23.350;2023-10-19T06:24:02;94953.03;;;11.50;84.81
55424;BME280;41294;42.666;23.350;2023-10-19T06:26:28;94949.81;;;11.38;85.16
55424;BME280;41294;42.666;23.350;2023-10-19T06:28:54;94945.75;;;10.74;88.00
55424;BME280;41294;42.666;23.350;2023-10-19T06:31:25;94951.03;;;10.74;88.13
55424;BME280;41294;42.666;23.350;2023-10-19T06:33:52;94941.94;;;10.75;88.62
55424;BME280;41294;42.666;23.350;2023-10-19T06:36:17;94940.50;;;10.92;88.72
55424;BME280;41294;42.666;23.350;2023-10-19T06:38:44;94937.25;;;10.79;88.35
55424;BME280;41294;42.666;23.350;2023-10-19T06:41:11;94940.91;;;10.81;89.40
55424;BME280;41294;42.666;23.350;2023-10-19T06:43:38;94949.09;;;10.74;89.30
55424;BME280;41294;42.666;23.350;2023-10-19T06:46:04;94952.13;;;10.46;91.33
55424;BME280;41294;42.666;23.350;2023-10-19T06:48:29;94949.13;;;10.83;91.02
55424;BME280;41294;42.666;23.350;2023-10-19T06:50:56;94960.81;;;11.09;89.35
55424;BME280;41294;42.666;23.350;2023-10-19T06:53:21;94945.88;;;11.33;88.07
55424;BME280;41294;42.666;23.350;2023-10-19T06:55:48;94956.56;;;11.56;86.65
55424;BME280;41294;42.666;23.350;2023-10-19T06:58:14;94939.44;;;11.34;87.81
55424;BME280;41294;42.666;23.350;2023-10-19T07:00:40;94947.44;;;11.75;87.06
55424;BME280;41294;42.666;23.350;2023-10-19T07:03:07;94930.84;;;11.07;88.77
55424;BME280;41294;42.666;23.350;2023-10-19T07:05:33;94926.44;;;10.95;90.74
55424;BME280;41294;42.666;23.350;2023-10-19T07:08:00;94929.34;;;11.24;89.81
55424;BME280;41294;42.666;23.350;2023-10-19T07:10:27;94932.97;;;11.62;86.32
55424;BME280;41294;42.666;23.350;2023-10-19T07:12:55;94931.66;;;11.66;86.95
55424;BME280;41294;42.666;23.350;2023-10-19T07:15:21;94928.38;;;12.45;83.86
55424;BME280;41294;42.666;23.350;2023-10-19T07:17:49;94936.81;;;12.02;84.42
55424;BME280;41294;42.666;23.350;2023-10-19T07:20:16;94940.44;;;11.63;86.65
55424;BME280;41294;42.666;23.350;2023-10-19T07:22:54;94941.56;;;12.22;84.60
55424;BME280;41294;42.666;23.350;2023-10-19T07:25:21;94936.25;;;11.89;85.65
55424;BME280;41294;42.666;23.350;2023-10-19T07:27:50;94943.41;;;11.98;84.97
55424;BME280;41294;42.666;23.350;2023-10-19T07:30:20;94938.94;;;12.45;82.51
55424;BME280;41294;42.666;23.350;2023-10-19T07:32:52;94932.31;;;12.73;81.83
55424;BME280;41294;42.666;23.350;2023-10-19T07:35:24;94927.66;;;12.91;80.81
55424;BME280;41294;42.666;23.350;2023-10-19T07:37:51;94931.88;;;13.50;77.96
55424;BME280;41294;42.666;23.350;2023-10-19T07:40:17;94935.81;;;13.54;77.53
55424;BME280;41294;42.666;23.350;2023-10-19T07:42:44;94937.63;;;13.63;77.76
55424;BME280;41294;42.666;23.350;2023-10-19T07:45:10;94937.94;;;14.28;75.28
55424;BME280;41294;42.666;23.350;2023-10-19T07:47:41;94940.38;;;14.31;74.32
55424;BME280;41294;42.666;23.350;2023-10-19T07:50:11;94950.56;;;14.53;73.14
55424;BME280;41294;42.666;23.350;2023-10-19T07:52:52;94953.09;;;14.81;72.16
55424;BME280;41294;42.666;23.350;2023-10-19T07:55:21;94940.84;;;15.04;71.61
55424;BME280;41294;42.666;23.350;2023-10-19T07:57:50;94936.31;;;15.80;69.35
55424;BME280;41294;42.666;23.350;2023-10-19T08:00:18;94946.47;;;17.49;64.19
55424;BME280;41294;42.666;23.350;2023-10-19T08:02:44;94933.47;;;18.27;61.06
55424;BME280;41294;42.666;23.350;2023-10-19T08:05:13;94940.78;;;19.00;57.85
55424;BME280;41294;42.666;23.350;2023-10-19T08:07:40;94944.00;;;20.19;54.77
55424;BME280;41294;42.666;23.350;2023-10-19T08:10:08;94941.00;;;19.59;53.60
55424;BME280;41294;42.666;23.350;2023-10-19T08:12:35;94941.66;;;17.86;57.05
55424;BME280;41294;42.666;23.350;2023-10-19T08:15:02;94945.56;;;18.28;57.62
55424;BME280;41294;42.666;23.350;2023-10-19T08:17:28;94947.03;;;19.65;55.10
55424;BME280;41294;42.666;23.350;2023-10-19T08:19:54;94930.72;;;19.28;55.27
55424;BME280;41294;42.666;23.350;2023-10-19T08:22:19;94927.59;;;19.70;54.20
55424;BME280;41294;42.666;23.350;2023-10-19T08:24:45;94924.94;;;20.81;51.72
55424;BME280;41294;42.666;23.350;2023-10-19T08:27:15;94932.47;;;21.62;49.02
55424;BME280;41294;42.666;23.350;2023-10-19T08:29:42;94929.16;;;22.50;47.37
55424;BME280;41294;42.666;23.350;2023-10-19T08:32:08;94931.41;;;23.36;45.31
55424;BME280;41294;42.666;23.350;2023-10-19T08:34:34;94927.28;;;23.35;43.93
55424;BME280;41294;42.666;23.350;2023-10-19T08:37:01;94939.91;;;22.76;44.86
55424;BME280;41294;42.666;23.350;2023-10-19T08:39:28;94934.91;;;21.23;46.07
55424;BME280;41294;42.666;23.350;2023-10-19T08:41:53;94922.31;;;19.07;51.33
55424;BME280;41294;42.666;23.350;2023-10-19T08:44:20;94928.91;;;18.96;53.41
55424;BME280;41294;42.666;23.350;2023-10-19T08:46:47;94934.69;;;19.96;50.89
55424;BME280;41294;42.666;23.350;2023-10-19T08:49:14;94930.34;;;19.02;52.07
55424;BME280;41294;42.666;23.350;2023-10-19T08:51:45;94934.25;;;17.15;58.82
55424;BME280;41294;42.666;23.350;2023-10-19T08:54:14;94918.91;;;17.96;57.38
55424;BME280;41294;42.666;23.350;2023-10-19T08:56:41;94926.91;;;16.88;60.52
55424;BME280;41294;42.666;23.350;2023-10-19T08:59:11;94930.03;;;17.78;59.94
55424;BME280;41294;42.666;23.350;2023-10-19T09:01:37;94920.06;;;18.60;55.21
55424;BME280;41294;42.666;23.350;2023-10-19T09:04:03;94925.84;;;18.70;56.46
55424;BME280;41294;42.666;23.350;2023-10-19T09:06:35;94934.19;;;16.99;59.24
55424;BME280;41294;42.666;23.350;2023-10-19T09:09:08;94923.69;;;15.70;64.85
55424;BME280;41294;42.666;23.350;2023-10-19T09:11:34;94917.66;;;16.37;63.26
55424;BME280;41294;42.666;23.350;2023-10-19T09:14:01;94907.81;;;16.95;61.18
55424;BME280;41294;42.666;23.350;2023-10-19T09:16:29;94904.63;;;17.77;58.83
55424;BME280;41294;42.666;23.350;2023-10-19T09:18:57;94906.53;;;17.60;59.70
55424;BME280;41294;42.666;23.350;2023-10-19T09:21:23;94895.25;;;18.87;55.44
55424;BME280;41294;42.666;23.350;2023-10-19T09:23:56;94892.16;;;19.23;53.10
55424;BME280;41294;42.666;23.350;2023-10-19T09:26:23;94892.91;;;19.24;53.34
55424;BME280;41294;42.666;23.350;2023-10-19T09:28:50;94876.84;;;18.73;55.46
55424;BME280;41294;42.666;23.350;2023-10-19T09:31:16;94879.41;;;19.00;54.18
55424;BME280;41294;42.666;23.350;2023-10-19T09:33:44;94878.31;;;18.74;55.42
55424;BME280;41294;42.666;23.350;2023-10-19T09:36:11;94863.69;;;17.80;58.52
55424;BME280;41294;42.666;23.350;2023-10-19T09:41:11;94861.75;;;17.31;59.80
55424;BME280;41294;42.666;23.350;2023-10-19T09:43:41;94857.78;;;18.52;57.72
55424;BME280;41294;42.666;23.350;2023-10-19T09:46:08;94853.25;;;18.20;57.74
55424;BME280;41294;42.666;23.350;2023-10-19T09:48:42;94847.44;;;17.18;61.96
55424;BME280;41294;42.666;23.350;2023-10-19T09:51:09;94860.97;;;17.20;62.12
55424;BME280;41294;42.666;23.350;2023-10-19T09:53:36;94840.09;;;18.49;58.12
55424;BME280;41294;42.666;23.350;2023-10-19T09:56:04;94837.50;;;18.16;59.30
55424;BME280;41294;42.666;23.350;2023-10-19T09:58:36;94840.47;;;17.58;60.92
55424;BME280;41294;42.666;23.350;2023-10-19T10:01:06;94851.22;;;16.84;64.47
55424;BME280;41294;42.666;23.350;2023-10-19T10:04:04;94837.34;;;17.54;63.15
55424;BME280;41294;42.666;23.350;2023-10-19T10:09:18;94825.25;;;17.59;60.61
55424;BME280;41294;42.666;23.350;2023-10-19T10:11:49;94819.09;;;18.81;58.87
55424;BME280;41294;42.666;23.350;2023-10-19T10:14:22;94824.06;;;19.46;56.39
55424;BME280;41294;42.666;23.350;2023-10-19T10:16:59;94825.72;;;20.13;54.34
55424;BME280;41294;42.666;23.350;2023-10-19T10:19:26;94824.50;;;19.21;55.41
55424;BME280;41294;42.666;23.350;2023-10-19T10:22:24;94826.09;;;19.70;56.31
55424;BME280;41294;42.666;23.350;2023-10-19T10:24:54;94819.78;;;20.44;54.08
55424;BME280;41294;42.666;23.350;2023-10-19T10:27:21;94810.41;;;18.75;56.28
55424;BME280;41294;42.666;23.350;2023-10-19T10:29:59;94801.97;;;19.11;57.07
55424;BME280;41294;42.666;23.350;2023-10-19T10:35:08;94792.72;;;21.58;50.79
55424;BME280;41294;42.666;23.350;2023-10-19T10:37:37;94796.97;;;20.19;51.93
55424;BME280;41294;42.666;23.350;2023-10-19T10:40:02;94780.66;;;19.99;54.72
55424;BME280;41294;42.666;23.350;2023-10-19T10:42:31;94774.69;;;19.29;55.07
55424;BME280;41294;42.666;23.350;2023-10-19T10:44:56;94773.56;;;19.78;53.54
55424;BME280;41294;42.666;23.350;2023-10-19T10:47:23;94770.31;;;18.51;57.86
55424;BME280;41294;42.666;23.350;2023-10-19T10:49:55;94755.91;;;18.03;59.65
55424;BME280;41294;42.666;23.350;2023-10-19T10:52:32;94754.06;;;18.95;57.68
55424;BME280;41294;42.666;23.350;2023-10-19T10:55:06;94756.03;;;19.23;56.44
55424;BME280;41294;42.666;23.350;2023-10-19T10:57:33;94757.53;;;19.78;55.80
55424;BME280;41294;42.666;23.350;2023-10-19T11:00:03;94744.84;;;20.86;52.43
55424;BME280;41294;42.666;23.350;2023-10-19T11:02:30;94748.28;;;20.63;53.16
55424;BME280;41294;42.666;23.350;2023-10-19T11:04:55;94738.22;;;21.06;51.59
55424;BME280;41294;42.666;23.350;2023-10-19T11:07:21;94722.47;;;21.02;51.34
55424;BME280;41294;42.666;23.350;2023-10-19T11:09:47;94721.69;;;20.89;51.46
55424;BME280;41294;42.666;23.350;2023-10-19T11:12:13;94733.38;;;20.49;52.27
55424;BME280;41294;42.666;23.350;2023-10-19T11:14:57;94712.81;;;20.81;52.99
55424;BME280;41294;42.666;23.350;2023-10-19T11:17:24;94714.91;;;19.85;54.33
55424;BME280;41294;42.666;23.350;2023-10-19T11:19:56;94703.16;;;20.17;54.71
55424;BME280;41294;42.666;23.350;2023-10-19T11:22:26;94706.38;;;21.34;51.14
55424;BME280;41294;42.666;23.350;2023-10-19T11:24:55;94700.28;;;21.77;50.02
55424;BME280;41294;42.666;23.350;2023-10-19T11:27:28;94696.28;;;20.95;51.49
55424;BME280;41294;42.666;23.350;2023-10-19T11:29:57;94696.72;;;19.83;54.82
55424;BME280;41294;42.666;23.350;2023-10-19T11:32:25;94687.84;;;19.52;57.20
55424;BME280;41294;42.666;23.350;2023-10-19T11:34:59;94677.13;;;20.73;53.85
55424;BME280;41294;42.666;23.350;2023-10-19T11:37:25;94676.00;;;21.44;51.59
55424;BME280;41294;42.666;23.350;2023-10-19T11:39:51;94675.69;;;21.35;51.49
55424;BME280;41294;42.666;23.350;2023-10-19T11:42:18;94665.06;;;21.29;51.83
55424;BME280;41294;42.666;23.350;2023-10-19T11:44:44;94670.88;;;21.59;51.39
55424;BME280;41294;42.666;23.350;2023-10-19T11:47:10;94663.22;;;20.74;52.64
55424;BME280;41294;42.666;23.350;2023-10-19T11:49:35;94662.69;;;20.63;53.14
55424;BME280;41294;42.666;23.350;2023-10-19T11:52:05;94664.31;;;21.16;51.50
55424;BME280;41294;42.666;23.350;2023-10-19T11:54:33;94659.75;;;21.68;50.32
55424;BME280;41294;42.666;23.350;2023-10-19T11:56:59;94653.34;;;21.97;49.64
55424;BME280;41294;42.666;23.350;2023-10-19T11:59:24;94652.72;;;21.52;50.33
55424;BME280;41294;42.666;23.350;2023-10-19T12:01:51;94654.56;;;20.87;52.12
55424;BME280;41294;42.666;23.350;2023-10-19T12:04:17;94653.72;;;21.23;51.78
55424;BME280;41294;42.666;23.350;2023-10-19T12:06:43;94652.13;;;21.85;50.25
55424;BME280;41294;42.666;23.350;2023-10-19T12:09:11;94654.50;;;21.62;50.44
55424;BME280;41294;42.666;23.350;2023-10-19T12:11:41;94652.44;;;21.94;50.67
55424;BME280;41294;42.666;23.350;2023-10-19T12:14:06;94647.81;;;22.28;48.93
55424;BME280;41294;42.666;23.350;2023-10-19T12:16:37;94642.19;;;22.52;48.14
55424;BME280;41294;42.666;23.350;2023-10-19T12:19:04;94630.56;;;22.70;47.88
55424;BME280;41294;42.666;23.350;2023-10-19T12:21:29;94626.97;;;22.67;48.10
55424;BME280;41294;42.666;23.350;2023-10-19T12:23:56;94626.38;;;22.41;48.70
55424;BME280;41294;42.666;23.350;2023-10-19T12:26:24;94630.47;;;22.42;48.48
55424;BME280;41294;42.666;23.350;2023-10-19T12:28:51;94631.31;;;22.70;48.12
55424;BME280;41294;42.666;23.350;2023-10-19T12:31:17;94621.78;;;22.49;47.79
55424;BME280;41294;42.666;23.350;2023-10-19T12:33:47;94623.47;;;21.80;50.20
55424;BME280;41294;42.666;23.350;2023-10-19T12:36:12;94617.78;;;21.83;50.09
55424;BME280;41294;42.666;23.350;2023-10-19T12:38:53;94613.84;;;21.07;51.81
55424;BME280;41294;42.666;23.350;2023-10-19T12:41:20;94612.00;;;21.15;51.93
55424;BME280;41294;42.666;23.350;2023-10-19T12:43:47;94606.78;;;21.48;50.91
55424;BME280;41294;42.666;23.350;2023-10-19T12:46:13;94603.78;;;21.52;50.70
55424;BME280;41294;42.666;23.350;2023-10-19T12:48:43;94602.53;;;21.27;51.49
55424;BME280;41294;42.666;23.350;2023-10-19T12:51:09;94601.16;;;20.94;52.03
55424;BME280;41294;42.666;23.350;2023-10-19T12:53:39;94594.06;;;20.97;52.37
55424;BME280;41294;42.666;23.350;2023-10-19T12:56:05;94591.53;;;21.30;50.67
55424;BME280;41294;42.666;23.350;2023-10-19T12:58:35;94598.38;;;21.00;51.53
55424;BME280;41294;42.666;23.350;2023-10-19T13:01:03;94597.06;;;20.44;53.72
55424;BME280;41294;42.666;23.350;2023-10-19T13:03:30;94594.97;;;20.86;52.57
55424;BME280;41294;42.666;23.350;2023-10-19T13:06:01;94592.91;;;20.79;52.25